createdAt,value
2022-08-05T00:03:30.026Z,6.28
2022-08-05T00:08:35.475Z,7.78
2022-08-05T00:13:40.100Z,6.80
2022-08-05T00:18:48.291Z,9.73
2022-08-05T00:24:09.881Z,5.85
2022-08-05T00:29:11.794Z,8.43
2022-08-05T00:34:53.754Z,5.50
2022-08-05T00:39:37.017Z,8.95
2022-08-05T00:44:46.149Z,6.32
2022-08-05T00:49:51.428Z,5.45
2022-08-05T00:54:53.461Z,9.15
2022-08-05T00:59:57.619Z,5.82
2022-08-05T01:04:59.893Z,6.45
2022-08-05T01:10:02.572Z,6.88
2022-08-05T01:15:35.319Z,8.90
2022-08-05T01:20:51.924Z,8.27
2022-08-05T01:26:18.706Z,9.32
2022-08-05T01:31:45.194Z,7.05
2022-08-05T01:41:52.999Z,7.40
2022-08-05T01:46:55.246Z,7.35
2022-08-05T01:52:01.077Z,7.15
2022-08-05T01:58:11.959Z,10.73
2022-08-05T02:02:28.807Z,5.10
2022-08-05T02:07:34.914Z,6.97
2022-08-05T02:12:50.996Z,5.88
2022-08-05T02:18:30.717Z,10.57
2022-08-05T02:23:33.786Z,5.40
2022-08-05T02:28:41.662Z,7.47
2022-08-05T02:33:57.368Z,7.22
2022-08-05T02:39:02.922Z,6.60
2022-08-05T02:44:13.301Z,7.95
2022-08-05T02:49:19.171Z,9.70
2022-08-05T02:54:36.170Z,11.18
2022-08-05T02:59:47.864Z,12.13
2022-08-05T03:04:54.454Z,15.55
2022-08-05T03:09:56.102Z,18.98
2022-08-05T03:14:57.748Z,16.55
2022-08-05T03:19:59.533Z,18.13
2022-08-05T03:25:32.588Z,21.83
2022-08-05T03:30:30.149Z,22.33
2022-08-05T03:35:40.784Z,25.45
2022-08-05T03:40:47.557Z,24.17
2022-08-05T03:45:57.861Z,26.02
2022-08-05T03:52:37.396Z,28.00
2022-08-05T03:56:44.285Z,25.92
2022-08-05T04:01:50.868Z,27.67
2022-08-05T04:06:54.127Z,33.43
2022-08-05T04:11:57.979Z,34.05
2022-08-05T04:17:00.375Z,37.92
2022-08-05T04:22:10.323Z,46.25
2022-08-05T04:27:14.100Z,48.33
2022-08-05T04:32:30.675Z,40.38
2022-08-05T04:42:55.239Z,42.95
2022-08-05T04:48:26.899Z,42.22
2022-08-05T04:53:29.327Z,52.50
2022-08-05T04:58:35.400Z,47.40
2022-08-05T05:03:42.102Z,41.25
2022-08-05T05:08:44.336Z,47.47
2022-08-05T05:13:51.597Z,49.53
2022-08-05T05:19:17.752Z,50.13
2022-08-05T05:24:18.467Z,54.17
2022-08-05T05:29:20.045Z,47.58
2022-08-05T05:34:27.109Z,48.92
2022-08-05T05:39:34.427Z,47.92
2022-08-05T05:44:42.967Z,40.78
2022-08-05T05:49:47.701Z,37.58
2022-08-05T05:55:02.261Z,36.28
2022-08-05T06:00:13.078Z,32.70
2022-08-05T06:05:17.205Z,39.22
2022-08-05T06:10:19.097Z,32.30
2022-08-05T06:15:24.226Z,35.33
2022-08-05T06:20:26.098Z,35.22
2022-08-05T06:26:12.620Z,26.38
2022-08-05T06:30:51.868Z,25.35
2022-08-05T06:36:07.777Z,23.23
2022-08-05T06:41:12.773Z,29.33
2022-08-05T06:46:15.025Z,27.55
2022-08-05T06:51:23.755Z,26.48
2022-08-05T06:56:34.255Z,32.17
2022-08-05T07:01:36.875Z,38.38
2022-08-05T07:06:38.629Z,45.15
2022-08-05T07:11:40.253Z,44.60
2022-08-05T07:18:00.997Z,46.38
2022-08-05T07:22:04.333Z,51.70
2022-08-05T07:27:08.901Z,48.80
2022-08-05T07:32:10.596Z,48.75
2022-08-05T07:37:12.191Z,46.97
2022-08-05T07:42:16.170Z,40.83
2022-08-05T07:47:17.957Z,41.78
2022-08-05T07:52:20.590Z,40.78
2022-08-05T07:57:51.383Z,48.00
2022-08-05T08:03:14.862Z,56.75
2022-08-05T08:08:12.170Z,55.75
2022-08-05T08:13:14.225Z,58.03
2022-08-05T08:18:23.869Z,59.30
2022-08-05T08:24:02.973Z,60.88
2022-08-05T08:28:58.914Z,62.90
2022-08-05T08:34:01.552Z,62.40
2022-08-05T08:39:03.371Z,63.22
2022-08-05T08:45:19.016Z,63.28
2022-08-05T08:50:06.021Z,44.15
2022-08-05T08:54:55.715Z,35.13
2022-08-05T08:59:59.520Z,38.00
2022-08-05T09:05:16.786Z,39.30
2022-08-05T09:10:20.725Z,37.75
2022-08-05T09:15:29.004Z,44.40
2022-08-05T09:20:36.348Z,46.17
2022-08-05T09:26:02.374Z,37.78
2022-08-05T09:31:43.938Z,35.60
2022-08-05T09:36:54.154Z,37.65
2022-08-05T09:42:03.117Z,34.00
2022-08-05T09:47:49.003Z,28.25
2022-08-05T09:52:58.224Z,20.75
2022-08-05T09:58:00.238Z,15.98
2022-08-05T10:03:10.038Z,16.40
2022-08-05T10:08:36.307Z,15.20
2022-08-05T10:13:47.792Z,16.08
2022-08-05T10:18:51.427Z,15.15
2022-08-05T10:23:58.974Z,12.88
2022-08-05T10:29:02.269Z,12.13
2022-08-05T10:34:06.949Z,10.82
2022-08-05T10:39:24.394Z,11.95
2022-08-05T10:44:45.245Z,15.00
2022-08-05T10:50:33.151Z,11.50
2022-08-05T10:55:30.159Z,8.32
2022-08-05T11:00:46.264Z,10.57
2022-08-05T11:06:15.283Z,9.00
2022-08-05T11:11:44.729Z,9.52
2022-08-05T11:17:57.289Z,8.70
2022-08-05T11:22:53.935Z,9.20
2022-08-05T11:28:10.802Z,6.30
2022-08-05T11:33:46.511Z,5.78
2022-08-05T11:38:51.847Z,6.40
2022-08-05T11:44:11.975Z,5.65
2022-08-05T11:49:15.175Z,4.70
2022-08-05T11:54:55.019Z,4.65
2022-08-05T11:59:57.870Z,7.68
2022-08-05T12:05:07.422Z,4.78
2022-08-05T12:10:13.164Z,3.42
2022-08-05T12:15:33.271Z,4.03
2022-08-05T12:20:39.409Z,3.72
2022-08-05T12:25:57.006Z,2.72
2022-08-05T12:31:02.410Z,5.85
2022-08-05T12:36:08.267Z,5.95
2022-08-05T12:41:13.927Z,3.28
2022-08-05T12:46:28.856Z,9.20
2022-08-05T12:52:12.541Z,7.78
2022-08-05T12:56:55.067Z,4.10
2022-08-05T13:02:07.666Z,5.97
2022-08-05T13:07:17.379Z,3.50
2022-08-05T13:12:28.679Z,5.15
2022-08-05T13:17:41.308Z,4.25
2022-08-05T13:22:48.330Z,4.20
2022-08-05T13:27:54.894Z,5.78
2022-08-05T13:32:56.632Z,5.20
2022-08-05T13:37:58.217Z,3.53
2022-08-05T13:43:06.720Z,4.93
2022-08-05T13:48:57.336Z,4.13
2022-08-05T13:53:35.483Z,9.20
2022-08-05T13:58:53.009Z,5.27
2022-08-05T14:03:55.472Z,5.03
2022-08-05T14:08:59.553Z,5.82
2022-08-05T14:14:01.302Z,5.28
2022-08-05T14:19:05.861Z,7.88
2022-08-05T14:24:07.534Z,6.60
2022-08-05T14:29:15.961Z,5.28
2022-08-05T14:34:17.967Z,4.90
2022-08-05T14:39:25.503Z,3.92
2022-08-05T14:44:30.128Z,4.47
2022-08-05T14:49:56.147Z,4.30
2022-08-05T14:54:53.505Z,6.80
2022-08-05T14:59:55.186Z,6.72
2022-08-05T15:04:58.089Z,3.53
2022-08-05T15:10:03.356Z,4.43
2022-08-05T15:15:05.701Z,3.80
2022-08-05T15:20:19.024Z,2.17
2022-08-05T15:25:23.623Z,2.83
2022-08-05T15:30:45.559Z,4.95
2022-08-05T15:35:48.054Z,3.33
2022-08-05T15:41:04.090Z,3.22
2022-08-05T15:46:13.135Z,3.88
2022-08-05T15:51:16.173Z,3.45
2022-08-05T15:56:19.157Z,4.70
2022-08-05T16:01:22.243Z,4.38
2022-08-05T16:06:31.172Z,3.38
2022-08-05T16:11:42.790Z,3.42
2022-08-05T16:16:46.117Z,2.90
2022-08-05T16:22:00.359Z,2.83
2022-08-05T16:27:04.762Z,2.47
2022-08-05T16:32:09.782Z,2.55
2022-08-05T16:38:01.714Z,4.97
2022-08-05T16:42:35.101Z,3.58
2022-08-05T16:47:48.295Z,6.60
2022-08-05T16:52:57.232Z,4.38
2022-08-05T16:58:01.457Z,4.97
2022-08-05T17:03:15.402Z,2.03
2022-08-05T17:08:36.423Z,2.53
2022-08-05T17:13:45.387Z,4.15
2022-08-05T17:18:47.023Z,2.70
2022-08-05T17:24:04.827Z,2.15
2022-08-05T17:29:10.316Z,5.82
2022-08-05T17:34:11.923Z,3.10
2022-08-05T17:39:23.894Z,2.80
2022-08-05T17:44:32.489Z,0.95
2022-08-05T17:49:59.640Z,2.63
2022-08-05T17:54:55.888Z,0.98
2022-08-05T18:00:05.561Z,1.98
2022-08-05T18:05:08.295Z,1.50
2022-08-05T18:10:11.453Z,1.92
2022-08-05T18:15:15.821Z,4.03
2022-08-05T18:20:17.368Z,2.05
2022-08-05T18:25:19.109Z,2.20
2022-08-05T18:30:23.801Z,1.27
2022-08-05T18:35:49.516Z,1.48
2022-08-05T18:41:56.162Z,1.95
2022-08-05T18:46:12.868Z,2.22
2022-08-05T18:52:04.795Z,1.80
2022-08-05T18:56:36.003Z,3.70
2022-08-05T19:01:48.145Z,1.25
2022-08-05T19:06:59.896Z,2.88
2022-08-05T19:12:01.826Z,1.10
2022-08-05T19:17:03.503Z,2.88
2022-08-05T19:22:08.172Z,3.90
2022-08-05T19:27:10.285Z,2.28
2022-08-05T19:32:12.143Z,1.58
2022-08-05T19:37:15.533Z,2.35
2022-08-05T19:42:17.375Z,3.58
2022-08-05T19:47:19.798Z,3.30
2022-08-05T19:52:31.399Z,2.35
2022-08-05T19:57:47.695Z,4.28
2022-08-05T20:02:55.657Z,3.88
2022-08-05T20:07:59.027Z,1.83
2022-08-05T20:13:00.933Z,2.97
2022-08-05T20:18:02.951Z,3.50
2022-08-05T20:23:04.921Z,3.15
2022-08-05T20:28:07.807Z,2.92
2022-08-05T20:33:15.549Z,2.20
2022-08-05T20:38:22.661Z,4.78
2022-08-05T20:43:58.306Z,2.40
2022-08-05T20:48:51.077Z,3.17
2022-08-05T20:53:56.176Z,1.98
2022-08-05T20:59:00.095Z,2.47
2022-08-05T21:04:12.943Z,2.08
2022-08-05T21:09:15.096Z,2.80
2022-08-05T21:14:16.893Z,4.43
2022-08-05T21:19:20.500Z,2.35
2022-08-05T21:24:25.188Z,3.08
2022-08-05T21:29:32.187Z,2.97
2022-08-05T21:34:35.595Z,1.65
2022-08-05T21:39:40.409Z,2.35
2022-08-05T21:44:42.524Z,2.55
2022-08-05T21:50:00.091Z,2.75
2022-08-05T21:55:06.418Z,3.28
2022-08-05T22:00:11.260Z,1.97
2022-08-05T22:05:16.204Z,1.48
2022-08-05T22:10:27.065Z,1.67
2022-08-05T22:15:56.438Z,3.40
2022-08-05T22:20:51.725Z,4.53
2022-08-05T22:26:10.682Z,2.55
2022-08-05T22:31:13.081Z,2.17
2022-08-05T22:36:17.115Z,4.10
2022-08-05T22:42:05.481Z,2.67
2022-08-05T22:46:41.611Z,3.17
2022-08-05T22:52:05.559Z,3.53
2022-08-05T22:57:06.050Z,4.32
2022-08-05T23:02:08.106Z,2.17
2022-08-05T23:07:09.746Z,6.88
2022-08-05T23:12:14.658Z,3.53
2022-08-05T23:17:16.451Z,3.47
2022-08-05T23:22:27.828Z,3.15
2022-08-05T23:27:42.250Z,5.65
2022-08-05T23:32:45.328Z,3.83
2022-08-05T23:37:47.023Z,3.25
2022-08-05T23:42:53.548Z,4.15
2022-08-05T23:47:59.399Z,4.10
2022-08-05T23:53:03.231Z,1.93
2022-08-05T23:58:04.986Z,2.97
